Terminal Aerodrome Forecast
Issued by NWS Tampa Bay Area, FL

Home | Current Version | Previous Version | Text Only | Print | Product List | Glossary On
Versions: 1 2 3 4 5 6 7 8 9 10 11 12 13 14 15 16 17 18 19 20 21 22 23 24 25 26 27 28 29
000
FTUS42 KTBW 241500 AAF
TAFTPA
TAF AMD
KTPA 241509Z 2415/2512 18008KT P6SM FEW002 OVC015
      TEMPO 2415/2416 4SM BR OVC002
     FM241600 19009KT P6SM SCT005 BKN010
     FM241700 20010KT P6SM SCT010 BKN025
     FM242000 21010KT P6SM SCT025 SCT250
     FM250000 19005KT P6SM SCT010 BKN250
     FM250300 19004KT 4SM BR BKN010=

USA.gov is the U.S. government's official web portal to all federal, state and local government web resources and services.